sensor_id;sensor_type;location;lat;lon;timestamp;pressure;altitude;pressure_sealevel;temperature;humidity
32456;BME280;18912;43.270;27.942;2022-10-23T00:01:21;98272.03;;;16.87;46.97
32456;BME280;18912;43.270;27.942;2022-10-23T00:03:50;98272.34;;;16.91;46.84
32456;BME280;18912;43.270;27.942;2022-10-23T00:06:16;98271.88;;;16.94;46.94
32456;BME280;18912;43.270;27.942;2022-10-23T00:08:42;98260.97;;;16.94;47.61
32456;BME280;18912;43.270;27.942;2022-10-23T00:11:10;98271.56;;;16.90;47.86
32456;BME280;18912;43.270;27.942;2022-10-23T00:13:36;98272.53;;;16.84;48.07
32456;BME280;18912;43.270;27.942;2022-10-23T00:16:01;98268.38;;;16.81;47.89
32456;BME280;18912;43.270;27.942;2022-10-23T00:18:27;98267.78;;;16.79;47.84
32456;BME280;18912;43.270;27.942;2022-10-23T00:20:52;98266.84;;;16.74;47.71
32456;BME280;18912;43.270;27.942;2022-10-23T00:23:18;98269.50;;;16.69;47.99
32456;BME280;18912;43.270;27.942;2022-10-23T00:25:43;98265.84;;;16.63;47.97
32456;BME280;18912;43.270;27.942;2022-10-23T00:28:09;98258.34;;;16.59;48.46
32456;BME280;18912;43.270;27.942;2022-10-23T00:30:35;98260.66;;;16.50;49.00
32456;BME280;18912;43.270;27.942;2022-10-23T00:33:00;98265.84;;;16.40;49.51
32456;BME280;18912;43.270;27.942;2022-10-23T00:35:26;98254.38;;;16.27;50.27
32456;BME280;18912;43.270;27.942;2022-10-23T00:37:51;98257.00;;;16.22;50.38
32456;BME280;18912;43.270;27.942;2022-10-23T00:40:17;98255.47;;;16.14;50.12
32456;BME280;18912;43.270;27.942;2022-10-23T00:42:42;98249.06;;;16.09;50.01
32456;BME280;18912;43.270;27.942;2022-10-23T00:45:32;98246.81;;;16.06;49.79
32456;BME280;18912;43.270;27.942;2022-10-23T00:48:01;98247.28;;;16.03;49.49
32456;BME280;18912;43.270;27.942;2022-10-23T00:50:30;98231.78;;;16.03;49.26
32456;BME280;18912;43.270;27.942;2022-10-23T00:52:59;98241.84;;;16.03;49.25
32456;BME280;18912;43.270;27.942;2022-10-23T00:55:27;98243.03;;;15.95;49.44
32456;BME280;18912;43.270;27.942;2022-10-23T00:57:53;98236.16;;;15.93;49.34
32456;BME280;18912;43.270;27.942;2022-10-23T01:00:30;98235.47;;;15.85;49.37
32456;BME280;18912;43.270;27.942;2022-10-23T01:02:56;98230.84;;;15.86;49.21
32456;BME280;18912;43.270;27.942;2022-10-23T01:05:35;98222.41;;;15.76;49.34
32456;BME280;18912;43.270;27.942;2022-10-23T01:08:11;98218.97;;;15.80;49.27
32456;BME280;18912;43.270;27.942;2022-10-23T01:10:46;98217.22;;;15.86;49.03
32456;BME280;18912;43.270;27.942;2022-10-23T01:16:13;98216.63;;;15.84;49.48
32456;BME280;18912;43.270;27.942;2022-10-23T01:18:45;98219.94;;;15.86;49.53
32456;BME280;18912;43.270;27.942;2022-10-23T01:29:27;98216.03;;;15.94;49.25
32456;BME280;18912;43.270;27.942;2022-10-23T01:32:11;98218.97;;;15.92;49.47
32456;BME280;18912;43.270;27.942;2022-10-23T01:34:40;98218.38;;;15.90;49.42
32456;BME280;18912;43.270;27.942;2022-10-23T01:37:11;98218.03;;;15.86;49.31
32456;BME280;18912;43.270;27.942;2022-10-23T01:39:43;98211.03;;;15.90;49.29
32456;BME280;18912;43.270;27.942;2022-10-23T01:42:12;98202.97;;;15.96;48.97
32456;BME280;18912;43.270;27.942;2022-10-23T01:44:49;98206.66;;;16.01;48.57
32456;BME280;18912;43.270;27.942;2022-10-23T01:47:17;98202.00;;;16.02;48.51
32456;BME280;18912;43.270;27.942;2022-10-23T01:49:46;98198.22;;;16.03;48.15
32456;BME280;18912;43.270;27.942;2022-10-23T01:52:14;98207.25;;;16.03;48.18
32456;BME280;18912;43.270;27.942;2022-10-23T01:54:42;98197.38;;;16.02;47.99
32456;BME280;18912;43.270;27.942;2022-10-23T01:57:10;98201.31;;;15.95;48.19
32456;BME280;18912;43.270;27.942;2022-10-23T01:59:50;98201.56;;;15.93;48.62
32456;BME280;18912;43.270;27.942;2022-10-23T02:02:18;98211.38;;;15.94;49.03
32456;BME280;18912;43.270;27.942;2022-10-23T02:07:12;98206.88;;;15.88;49.07
32456;BME280;18912;43.270;27.942;2022-10-23T02:09:38;98204.03;;;15.83;49.47
32456;BME280;18912;43.270;27.942;2022-10-23T02:12:09;98211.16;;;15.84;49.41
32456;BME280;18912;43.270;27.942;2022-10-23T02:20:18;98203.00;;;15.72;50.19
32456;BME280;18912;43.270;27.942;2022-10-23T02:23:06;98205.38;;;15.69;50.15
32456;BME280;18912;43.270;27.942;2022-10-23T02:25:52;98198.13;;;15.63;50.17
32456;BME280;18912;43.270;27.942;2022-10-23T02:28:23;98202.41;;;15.59;50.20
32456;BME280;18912;43.270;27.942;2022-10-23T02:30:50;98206.66;;;15.55;49.90
32456;BME280;18912;43.270;27.942;2022-10-23T02:33:17;98198.72;;;15.53;50.03
32456;BME280;18912;43.270;27.942;2022-10-23T02:35:44;98200.03;;;15.51;50.25
32456;BME280;18912;43.270;27.942;2022-10-23T02:38:33;98191.16;;;15.44;50.53
32456;BME280;18912;43.270;27.942;2022-10-23T02:41:38;98194.88;;;15.31;50.39
32456;BME280;18912;43.270;27.942;2022-10-23T02:57:49;98191.84;;;15.62;49.67
32456;BME280;18912;43.270;27.942;2022-10-23T03:00:19;98196.22;;;15.75;49.32
32456;BME280;18912;43.270;27.942;2022-10-23T03:03:09;98199.88;;;15.80;49.39
32456;BME280;18912;43.270;27.942;2022-10-23T03:05:38;98207.13;;;15.86;49.11
32456;BME280;18912;43.270;27.942;2022-10-23T03:08:07;98214.34;;;15.93;49.39
32456;BME280;18912;43.270;27.942;2022-10-23T03:10:33;98211.97;;;15.96;49.50
32456;BME280;18912;43.270;27.942;2022-10-23T03:12:59;98214.59;;;15.91;49.66
32456;BME280;18912;43.270;27.942;2022-10-23T03:15:24;98208.19;;;15.97;49.70
32456;BME280;18912;43.270;27.942;2022-10-23T03:17:50;98209.47;;;15.95;50.00
32456;BME280;18912;43.270;27.942;2022-10-23T03:20:16;98197.88;;;15.99;49.84
32456;BME280;18912;43.270;27.942;2022-10-23T03:22:41;98205.56;;;16.02;49.76
32456;BME280;18912;43.270;27.942;2022-10-23T03:25:07;98198.81;;;16.05;49.83
32456;BME280;18912;43.270;27.942;2022-10-23T03:27:33;98210.66;;;16.10;49.75
32456;BME280;18912;43.270;27.942;2022-10-23T03:29:59;98215.03;;;16.11;49.92
32456;BME280;18912;43.270;27.942;2022-10-23T03:32:24;98216.34;;;16.09;49.93
32456;BME280;18912;43.270;27.942;2022-10-23T03:34:49;98221.78;;;16.20;49.34
32456;BME280;18912;43.270;27.942;2022-10-23T03:37:15;98233.84;;;16.24;49.58
32456;BME280;18912;43.270;27.942;2022-10-23T03:39:40;98237.66;;;16.23;49.57
32456;BME280;18912;43.270;27.942;2022-10-23T03:42:06;98238.50;;;16.24;49.43
32456;BME280;18912;43.270;27.942;2022-10-23T03:44:31;98241.34;;;16.17;49.61
32456;BME280;18912;43.270;27.942;2022-10-23T03:46:58;98245.94;;;16.28;49.00
32456;BME280;18912;43.270;27.942;2022-10-23T03:49:23;98231.69;;;16.49;48.09
32456;BME280;18912;43.270;27.942;2022-10-23T03:51:49;98226.66;;;16.69;47.71
32456;BME280;18912;43.270;27.942;2022-10-23T03:54:24;98223.03;;;16.80;47.01
32456;BME280;18912;43.270;27.942;2022-10-23T03:56:51;98229.25;;;16.93;46.81
32456;BME280;18912;43.270;27.942;2022-10-23T03:59:17;98218.44;;;16.98;46.30
32456;BME280;18912;43.270;27.942;2022-10-23T04:01:42;98212.28;;;17.19;46.13
32456;BME280;18912;43.270;27.942;2022-10-23T04:04:08;98209.47;;;17.30;45.81
32456;BME280;18912;43.270;27.942;2022-10-23T04:06:34;98205.56;;;17.43;45.16
32456;BME280;18912;43.270;27.942;2022-10-23T04:08:59;98213.88;;;17.64;45.10
32456;BME280;18912;43.270;27.942;2022-10-23T04:11:25;98217.19;;;17.83;44.36
32456;BME280;18912;43.270;27.942;2022-10-23T04:13:51;98224.13;;;18.12;43.76
32456;BME280;18912;43.270;27.942;2022-10-23T04:16:16;98219.13;;;18.26;44.08
32456;BME280;18912;43.270;27.942;2022-10-23T04:18:42;98224.16;;;18.34;43.45
32456;BME280;18912;43.270;27.942;2022-10-23T04:21:07;98227.13;;;18.49;42.98
32456;BME280;18912;43.270;27.942;2022-10-23T04:23:33;98218.84;;;18.65;42.90
32456;BME280;18912;43.270;27.942;2022-10-23T04:25:59;98233.28;;;18.83;42.62
32456;BME280;18912;43.270;27.942;2022-10-23T04:28:25;98225.59;;;18.80;42.57
32456;BME280;18912;43.270;27.942;2022-10-23T04:30:51;98230.38;;;18.94;42.35
32456;BME280;18912;43.270;27.942;2022-10-23T04:33:16;98230.09;;;18.91;42.53
32456;BME280;18912;43.270;27.942;2022-10-23T04:35:44;98247.34;;;18.91;42.32
32456;BME280;18912;43.270;27.942;2022-10-23T04:38:09;98243.16;;;18.84;42.42
32456;BME280;18912;43.270;27.942;2022-10-23T04:40:35;98243.72;;;18.86;42.45
32456;BME280;18912;43.270;27.942;2022-10-23T04:43:01;98235.88;;;18.94;42.57
32456;BME280;18912;43.270;27.942;2022-10-23T04:45:26;98241.66;;;18.98;42.81
32456;BME280;18912;43.270;27.942;2022-10-23T04:47:51;98239.00;;;19.03;42.34
32456;BME280;18912;43.270;27.942;2022-10-23T04:50:21;98234.88;;;19.05;42.35
32456;BME280;18912;43.270;27.942;2022-10-23T04:52:46;98243.66;;;19.07;42.37
32456;BME280;18912;43.270;27.942;2022-10-23T04:55:12;98242.91;;;19.12;42.57
32456;BME280;18912;43.270;27.942;2022-10-23T04:57:37;98241.00;;;19.12;42.63
32456;BME280;18912;43.270;27.942;2022-10-23T05:00:05;98242.91;;;19.12;42.57
32456;BME280;18912;43.270;27.942;2022-10-23T05:02:31;98242.66;;;19.13;42.58
32456;BME280;18912;43.270;27.942;2022-10-23T05:04:56;98242.28;;;19.05;43.02
32456;BME280;18912;43.270;27.942;2022-10-23T05:07:22;98244.00;;;19.11;42.92
32456;BME280;18912;43.270;27.942;2022-10-23T05:09:47;98256.66;;;19.17;42.95
32456;BME280;18912;43.270;27.942;2022-10-23T05:12:13;98263.56;;;19.24;42.62
32456;BME280;18912;43.270;27.942;2022-10-23T05:14:38;98270.84;;;19.09;43.24
32456;BME280;18912;43.270;27.942;2022-10-23T05:17:13;98275.84;;;19.17;43.06
32456;BME280;18912;43.270;27.942;2022-10-23T05:19:48;98278.78;;;19.10;43.20
32456;BME280;18912;43.270;27.942;2022-10-23T05:22:16;98275.09;;;19.00;43.15
32456;BME280;18912;43.270;27.942;2022-10-23T05:24:42;98268.25;;;18.97;43.53
32456;BME280;18912;43.270;27.942;2022-10-23T05:27:08;98273.06;;;18.90;43.62
32456;BME280;18912;43.270;27.942;2022-10-23T05:29:33;98279.66;;;18.89;43.83
32456;BME280;18912;43.270;27.942;2022-10-23T05:32:02;98282.28;;;19.06;43.77
32456;BME280;18912;43.270;27.942;2022-10-23T05:34:30;98286.00;;;19.16;43.87
32456;BME280;18912;43.270;27.942;2022-10-23T05:36:57;98280.69;;;19.10;43.73
32456;BME280;18912;43.270;27.942;2022-10-23T05:39:23;98289.22;;;19.13;43.90
32456;BME280;18912;43.270;27.942;2022-10-23T05:41:49;98291.41;;;19.11;43.89
32456;BME280;18912;43.270;27.942;2022-10-23T05:44:15;98284.06;;;19.17;43.64
32456;BME280;18912;43.270;27.942;2022-10-23T05:46:41;98288.28;;;19.03;43.94
32456;BME280;18912;43.270;27.942;2022-10-23T05:49:07;98293.50;;;19.26;43.53
32456;BME280;18912;43.270;27.942;2022-10-23T05:51:35;98294.78;;;19.18;43.74
32456;BME280;18912;43.270;27.942;2022-10-23T05:54:02;98288.31;;;19.29;44.01
32456;BME280;18912;43.270;27.942;2022-10-23T05:56:28;98288.81;;;19.26;44.01
32456;BME280;18912;43.270;27.942;2022-10-23T05:58:53;98295.66;;;19.24;44.24
32456;BME280;18912;43.270;27.942;2022-10-23T06:01:19;98298.31;;;19.19;44.65
32456;BME280;18912;43.270;27.942;2022-10-23T06:03:44;98300.25;;;19.18;45.30
32456;BME280;18912;43.270;27.942;2022-10-23T06:06:10;98285.72;;;19.18;45.39
32456;BME280;18912;43.270;27.942;2022-10-23T06:08:35;98304.63;;;19.19;45.96
32456;BME280;18912;43.270;27.942;2022-10-23T06:11:09;98300.84;;;19.20;45.82
32456;BME280;18912;43.270;27.942;2022-10-23T06:13:35;98305.22;;;19.21;46.38
32456;BME280;18912;43.270;27.942;2022-10-23T06:16:12;98303.31;;;19.22;46.76
32456;BME280;18912;43.270;27.942;2022-10-23T06:18:38;98306.63;;;19.24;46.81
32456;BME280;18912;43.270;27.942;2022-10-23T06:21:04;98310.25;;;19.29;47.26
32456;BME280;18912;43.270;27.942;2022-10-23T06:23:31;98311.66;;;19.32;47.64
32456;BME280;18912;43.270;27.942;2022-10-23T06:25:57;98306.25;;;19.37;48.09
32456;BME280;18912;43.270;27.942;2022-10-23T06:28:22;98314.00;;;19.23;48.35
32456;BME280;18912;43.270;27.942;2022-10-23T06:30:48;98319.88;;;19.32;48.41
32456;BME280;18912;43.270;27.942;2022-10-23T06:33:13;98314.06;;;19.28;48.89
32456;BME280;18912;43.270;27.942;2022-10-23T06:35:39;98312.59;;;19.21;48.92
32456;BME280;18912;43.270;27.942;2022-10-23T06:38:04;98302.63;;;19.10;49.26
32456;BME280;18912;43.270;27.942;2022-10-23T06:40:30;98304.13;;;18.96;50.23
32456;BME280;18912;43.270;27.942;2022-10-23T06:42:55;98297.09;;;19.85;48.78
32456;BME280;18912;43.270;27.942;2022-10-23T06:45:21;98296.06;;;22.11;44.21
32456;BME280;18912;43.270;27.942;2022-10-23T06:47:50;98298.91;;;23.88;40.91
32456;BME280;18912;43.270;27.942;2022-10-23T06:50:16;98297.25;;;26.77;36.57
32456;BME280;18912;43.270;27.942;2022-10-23T06:52:41;98297.22;;;26.00;36.81
32456;BME280;18912;43.270;27.942;2022-10-23T06:55:07;98302.91;;;24.39;39.46
32456;BME280;18912;43.270;27.942;2022-10-23T06:57:33;98310.06;;;23.34;41.65
32456;BME280;18912;43.270;27.942;2022-10-23T06:59:58;98298.28;;;22.04;44.27
32456;BME280;18912;43.270;27.942;2022-10-23T07:02:24;98314.16;;;21.42;45.89
32456;BME280;18912;43.270;27.942;2022-10-23T07:04:49;98310.25;;;21.28;46.60
32456;BME280;18912;43.270;27.942;2022-10-23T07:07:15;98315.59;;;20.88;47.65
32456;BME280;18912;43.270;27.942;2022-10-23T07:09:40;98312.69;;;20.58;48.19
32456;BME280;18912;43.270;27.942;2022-10-23T07:12:06;98309.03;;;20.42;48.57
32456;BME280;18912;43.270;27.942;2022-10-23T07:14:31;98312.59;;;20.37;49.17
32456;BME280;18912;43.270;27.942;2022-10-23T07:16:57;98310.44;;;23.07;43.63
32456;BME280;18912;43.270;27.942;2022-10-23T07:19:23;98306.81;;;23.66;41.90
32456;BME280;18912;43.270;27.942;2022-10-23T07:21:49;98295.25;;;24.60;40.27
32456;BME280;18912;43.270;27.942;2022-10-23T07:24:15;98309.59;;;25.88;37.71
32456;BME280;18912;43.270;27.942;2022-10-23T07:26:41;98307.50;;;25.01;38.87
32456;BME280;18912;43.270;27.942;2022-10-23T07:29:08;98316.88;;;25.47;38.80
32456;BME280;18912;43.270;27.942;2022-10-23T07:31:34;98293.56;;;25.30;38.78
32456;BME280;18912;43.270;27.942;2022-10-23T07:33:59;98303.44;;;24.93;38.99
32456;BME280;18912;43.270;27.942;2022-10-23T07:36:25;98325.47;;;25.83;37.99
32456;BME280;18912;43.270;27.942;2022-10-23T07:38:50;98318.59;;;26.31;37.23
32456;BME280;18912;43.270;27.942;2022-10-23T07:41:16;98328.00;;;26.17;37.18
32456;BME280;18912;43.270;27.942;2022-10-23T07:43:41;98335.75;;;26.33;37.10
32456;BME280;18912;43.270;27.942;2022-10-23T07:46:07;98343.69;;;26.72;36.88
32456;BME280;18912;43.270;27.942;2022-10-23T07:48:34;98367.66;;;26.63;36.84
32456;BME280;18912;43.270;27.942;2022-10-23T07:51:01;98370.97;;;27.87;34.91
32456;BME280;18912;43.270;27.942;2022-10-23T07:53:28;98395.69;;;28.46;33.85
32456;BME280;18912;43.270;27.942;2022-10-23T07:55:56;98394.47;;;28.39;34.02
32456;BME280;18912;43.270;27.942;2022-10-23T07:58:22;98395.69;;;27.75;34.76
32456;BME280;18912;43.270;27.942;2022-10-23T08:00:56;98385.97;;;28.57;33.95
32456;BME280;18912;43.270;27.942;2022-10-23T08:03:24;98383.19;;;28.35;33.73
32456;BME280;18912;43.270;27.942;2022-10-23T08:05:51;98376.72;;;27.91;34.34
32456;BME280;18912;43.270;27.942;2022-10-23T08:08:17;98372.59;;;28.46;33.89
32456;BME280;18912;43.270;27.942;2022-10-23T08:10:45;98373.75;;;28.67;33.67
32456;BME280;18912;43.270;27.942;2022-10-23T08:13:11;98369.72;;;28.29;33.73
32456;BME280;18912;43.270;27.942;2022-10-23T08:15:37;98370.81;;;28.06;34.08
32456;BME280;18912;43.270;27.942;2022-10-23T08:18:03;98379.56;;;28.13;33.89
32456;BME280;18912;43.270;27.942;2022-10-23T08:20:29;98390.88;;;27.53;34.61
32456;BME280;18912;43.270;27.942;2022-10-23T08:22:54;98398.94;;;27.91;34.51
32456;BME280;18912;43.270;27.942;2022-10-23T08:25:21;98394.88;;;27.20;34.98
32456;BME280;18912;43.270;27.942;2022-10-23T08:27:46;98412.63;;;28.01;34.37
32456;BME280;18912;43.270;27.942;2022-10-23T08:30:12;98414.63;;;28.58;33.28
32456;BME280;18912;43.270;27.942;2022-10-23T08:32:37;98413.34;;;28.64;33.57
32456;BME280;18912;43.270;27.942;2022-10-23T08:35:03;98421.75;;;28.15;33.64
32456;BME280;18912;43.270;27.942;2022-10-23T08:37:29;98412.81;;;28.40;33.66
32456;BME280;18912;43.270;27.942;2022-10-23T08:39:54;98425.22;;;28.78;33.08
32456;BME280;18912;43.270;27.942;2022-10-23T08:42:23;98421.03;;;28.45;33.36
32456;BME280;18912;43.270;27.942;2022-10-23T08:44:54;98417.47;;;28.09;33.75
32456;BME280;18912;43.270;27.942;2022-10-23T08:47:32;98418.66;;;28.74;33.15
32456;BME280;18912;43.270;27.942;2022-10-23T08:50:13;98413.66;;;29.55;32.38
32456;BME280;18912;43.270;27.942;2022-10-23T08:53:03;98413.34;;;30.47;30.72
32456;BME280;18912;43.270;27.942;2022-10-23T08:55:36;98415.00;;;30.39;31.20
32456;BME280;18912;43.270;27.942;2022-10-23T08:58:09;98413.09;;;29.35;32.08
32456;BME280;18912;43.270;27.942;2022-10-23T09:00:40;98402.91;;;29.22;32.07
32456;BME280;18912;43.270;27.942;2022-10-23T09:03:08;98417.72;;;30.13;31.19
32456;BME280;18912;43.270;27.942;2022-10-23T09:06:00;98403.31;;;30.03;31.06
32456;BME280;18912;43.270;27.942;2022-10-23T09:18:53;98438.31;;;31.23;29.58
32456;BME280;18912;43.270;27.942;2022-10-23T09:21:24;98447.47;;;30.86;30.27
32456;BME280;18912;43.270;27.942;2022-10-23T09:23:50;98451.50;;;31.14;29.50
32456;BME280;18912;43.270;27.942;2022-10-23T09:26:17;98454.34;;;31.06;29.54
32456;BME280;18912;43.270;27.942;2022-10-23T09:28:50;98454.78;;;31.08;30.04
32456;BME280;18912;43.270;27.942;2022-10-23T09:31:17;98463.53;;;30.89;29.98
32456;BME280;18912;43.270;27.942;2022-10-23T09:33:59;98464.69;;;30.46;30.09
32456;BME280;18912;43.270;27.942;2022-10-23T09:36:27;98467.34;;;30.51;30.13
32456;BME280;18912;43.270;27.942;2022-10-23T09:38:56;98470.03;;;31.27;29.92
32456;BME280;18912;43.270;27.942;2022-10-23T09:41:39;98468.00;;;30.90;30.11
32456;BME280;18912;43.270;27.942;2022-10-23T09:46:53;98470.84;;;31.28;29.20
32456;BME280;18912;43.270;27.942;2022-10-23T09:52:00;98454.38;;;30.46;30.43
32456;BME280;18912;43.270;27.942;2022-10-23T09:54:55;98459.22;;;31.64;28.83
32456;BME280;18912;43.270;27.942;2022-10-23T09:57:30;98452.97;;;32.25;28.10
32456;BME280;18912;43.270;27.942;2022-10-23T10:02:37;98453.97;;;32.00;27.81
32456;BME280;18912;43.270;27.942;2022-10-23T10:08:21;98456.97;;;32.65;27.21
32456;BME280;18912;43.270;27.942;2022-10-23T10:11:00;98460.53;;;33.07;27.22
32456;BME280;18912;43.270;27.942;2022-10-23T10:28:12;98462.72;;;30.63;30.17
32456;BME280;18912;43.270;27.942;2022-10-23T10:33:33;98447.63;;;30.38;30.09
32456;BME280;18912;43.270;27.942;2022-10-23T10:41:21;98455.31;;;30.16;30.13
32456;BME280;18912;43.270;27.942;2022-10-23T10:44:08;98453.97;;;30.05;30.71
32456;BME280;18912;43.270;27.942;2022-10-23T10:46:54;98445.56;;;29.48;31.12
32456;BME280;18912;43.270;27.942;2022-10-23T10:57:49;98462.34;;;31.16;29.33
32456;BME280;18912;43.270;27.942;2022-10-23T11:00:18;98454.69;;;30.87;29.42
32456;BME280;18912;43.270;27.942;2022-10-23T11:02:47;98464.63;;;31.14;29.39
32456;BME280;18912;43.270;27.942;2022-10-23T11:05:31;98465.16;;;31.62;28.72
32456;BME280;18912;43.270;27.942;2022-10-23T11:10:26;98454.56;;;31.76;28.10
32456;BME280;18912;43.270;27.942;2022-10-23T11:12:53;98463.56;;;31.53;28.67
32456;BME280;18912;43.270;27.942;2022-10-23T11:15:28;98462.63;;;31.40;28.57
32456;BME280;18912;43.270;27.942;2022-10-23T11:18:01;98455.44;;;31.22;29.12
32456;BME280;18912;43.270;27.942;2022-10-23T11:29:49;98477.34;;;30.77;29.38
32456;BME280;18912;43.270;27.942;2022-10-23T11:38:25;98470.38;;;30.15;29.68
32456;BME280;18912;43.270;27.942;2022-10-23T11:40:59;98475.16;;;29.67;30.24
32456;BME280;18912;43.270;27.942;2022-10-23T11:43:33;98481.34;;;29.64;30.69
32456;BME280;18912;43.270;27.942;2022-10-23T11:48:47;98462.38;;;29.04;31.39
32456;BME280;18912;43.270;27.942;2022-10-23T11:51:34;98481.88;;;28.82;31.29
32456;BME280;18912;43.270;27.942;2022-10-23T11:54:21;98478.00;;;28.70;31.32
32456;BME280;18912;43.270;27.942;2022-10-23T11:57:12;98472.91;;;28.49;31.47
32456;BME280;18912;43.270;27.942;2022-10-23T12:04:51;98487.53;;;28.06;32.34
32456;BME280;18912;43.270;27.942;2022-10-23T12:07:22;98484.84;;;28.14;32.21
32456;BME280;18912;43.270;27.942;2022-10-23T12:10:00;98489.81;;;27.77;32.35
32456;BME280;18912;43.270;27.942;2022-10-23T12:17:39;98490.75;;;26.99;33.89
32456;BME280;18912;43.270;27.942;2022-10-23T12:20:16;98491.84;;;26.98;33.75
32456;BME280;18912;43.270;27.942;2022-10-23T12:22:49;98489.44;;;27.10;33.66
32456;BME280;18912;43.270;27.942;2022-10-23T12:29:01;98493.53;;;27.13;33.62
32456;BME280;18912;43.270;27.942;2022-10-23T12:34:25;98492.59;;;27.04;33.93
32456;BME280;18912;43.270;27.942;2022-10-23T12:39:37;98502.34;;;27.01;33.91
32456;BME280;18912;43.270;27.942;2022-10-23T12:42:15;98497.50;;;26.93;34.02
32456;BME280;18912;43.270;27.942;2022-10-23T12:44:41;98499.47;;;26.74;34.24
32456;BME280;18912;43.270;27.942;2022-10-23T12:47:14;98496.31;;;26.62;34.89
32456;BME280;18912;43.270;27.942;2022-10-23T12:49:50;98498.22;;;26.48;34.77
32456;BME280;18912;43.270;27.942;2022-10-23T12:52:18;98504.50;;;26.35;34.58
32456;BME280;18912;43.270;27.942;2022-10-23T12:54:45;98512.13;;;26.43;34.74
32456;BME280;18912;43.270;27.942;2022-10-23T12:57:24;98507.22;;;26.40;34.94
32456;BME280;18912;43.270;27.942;2022-10-23T12:59:56;98503.38;;;26.36;34.86
32456;BME280;18912;43.270;27.942;2022-10-23T13:02:29;98507.94;;;26.27;34.92
32456;BME280;18912;43.270;27.942;2022-10-23T13:04:59;98513.19;;;26.10;35.21
32456;BME280;18912;43.270;27.942;2022-10-23T13:07:27;98508.69;;;26.14;35.02
32456;BME280;18912;43.270;27.942;2022-10-23T13:09:53;98505.84;;;26.19;35.04
32456;BME280;18912;43.270;27.942;2022-10-23T13:12:22;98510.72;;;26.27;35.46
32456;BME280;18912;43.270;27.942;2022-10-23T13:15:13;98506.94;;;26.18;35.42
32456;BME280;18912;43.270;27.942;2022-10-23T13:17:45;98506.47;;;26.16;35.74
32456;BME280;18912;43.270;27.942;2022-10-23T13:22:40;98515.56;;;26.35;35.12
32456;BME280;18912;43.270;27.942;2022-10-23T13:25:27;98509.22;;;26.16;35.36
32456;BME280;18912;43.270;27.942;2022-10-23T13:28:22;98517.66;;;26.06;35.66
32456;BME280;18912;43.270;27.942;2022-10-23T13:38:36;98521.78;;;25.61;35.84
32456;BME280;18912;43.270;27.942;2022-10-23T13:41:11;98525.91;;;25.35;35.97
32456;BME280;18912;43.270;27.942;2022-10-23T13:43:37;98539.84;;;25.25;36.63
32456;BME280;18912;43.270;27.942;2022-10-23T13:46:03;98536.84;;;25.21;36.65
32456;BME280;18912;43.270;27.942;2022-10-23T13:48:28;98531.81;;;25.28;36.71
32456;BME280;18912;43.270;27.942;2022-10-23T13:51:01;98532.59;;;25.34;36.54
32456;BME280;18912;43.270;27.942;2022-10-23T13:53:31;98521.19;;;25.40;36.67
32456;BME280;18912;43.270;27.942;2022-10-23T13:55:57;98518.91;;;25.47;36.50
32456;BME280;18912;43.270;27.942;2022-10-23T13:58:22;98525.31;;;25.43;36.95
32456;BME280;18912;43.270;27.942;2022-10-23T14:00:48;98524.50;;;25.42;36.90
32456;BME280;18912;43.270;27.942;2022-10-23T14:03:14;98522.69;;;25.28;37.29
32456;BME280;18912;43.270;27.942;2022-10-23T14:05:41;98529.00;;;25.33;37.35
32456;BME280;18912;43.270;27.942;2022-10-23T14:08:07;98528.91;;;25.38;37.27
32456;BME280;18912;43.270;27.942;2022-10-23T14:10:32;98523.38;;;25.38;37.19
32456;BME280;18912;43.270;27.942;2022-10-23T14:12:59;98533.53;;;25.19;37.21
32456;BME280;18912;43.270;27.942;2022-10-23T14:15:24;98539.59;;;25.21;37.27
32456;BME280;18912;43.270;27.942;2022-10-23T14:17:50;98537.97;;;25.20;37.16
32456;BME280;18912;43.270;27.942;2022-10-23T14:20:15;98534.66;;;25.18;37.52
32456;BME280;18912;43.270;27.942;2022-10-23T14:22:41;98533.59;;;25.14;37.57
32456;BME280;18912;43.270;27.942;2022-10-23T14:25:06;98534.75;;;25.08;37.62
32456;BME280;18912;43.270;27.942;2022-10-23T14:27:32;98538.50;;;24.93;37.96
32456;BME280;18912;43.270;27.942;2022-10-23T14:29:58;98538.91;;;24.77;38.76
32456;BME280;18912;43.270;27.942;2022-10-23T14:32:23;98530.44;;;24.58;38.60
32456;BME280;18912;43.270;27.942;2022-10-23T14:34:51;98537.69;;;24.49;38.93
32456;BME280;18912;43.270;27.942;2022-10-23T14:37:18;98536.91;;;24.44;39.00
32456;BME280;18912;43.270;27.942;2022-10-23T14:39:44;98547.47;;;24.32;39.25
32456;BME280;18912;43.270;27.942;2022-10-23T14:42:10;98543.66;;;24.23;39.41
32456;BME280;18912;43.270;27.942;2022-10-23T14:44:36;98546.75;;;24.11;39.65
32456;BME280;18912;43.270;27.942;2022-10-23T14:47:01;98560.59;;;23.96;40.06
32456;BME280;18912;43.270;27.942;2022-10-23T14:49:27;98550.47;;;23.76;40.20
32456;BME280;18912;43.270;27.942;2022-10-23T14:51:53;98555.78;;;23.63;40.47
32456;BME280;18912;43.270;27.942;2022-10-23T14:54:18;98572.88;;;23.60;40.73
32456;BME280;18912;43.270;27.942;2022-10-23T14:56:44;98564.88;;;23.48;41.23
32456;BME280;18912;43.270;27.942;2022-10-23T14:59:09;98563.78;;;23.29;41.12
32456;BME280;18912;43.270;27.942;2022-10-23T15:01:43;98566.84;;;23.12;41.04
32456;BME280;18912;43.270;27.942;2022-10-23T15:04:12;98574.31;;;23.07;40.93
32456;BME280;18912;43.270;27.942;2022-10-23T15:06:38;98574.28;;;22.97;41.34
32456;BME280;18912;43.270;27.942;2022-10-23T15:09:04;98581.47;;;22.83;41.59
32456;BME280;18912;43.270;27.942;2022-10-23T15:11:31;98583.66;;;22.76;41.77
32456;BME280;18912;43.270;27.942;2022-10-23T15:13:58;98575.94;;;22.58;41.78
32456;BME280;18912;43.270;27.942;2022-10-23T15:16:24;98573.66;;;22.50;42.28